In Rescue
 
Open Full Screen Window  High Contrast Mode
Wind Gusting 00 knots
05
August 09, 2020 5:30 PM CDT
Weather Information
Wind Direction
  230 °
Wind Speed
  05 kt (6 mph)
Wind Gust
  00 kt (0 mph)
Altimeter
29.80 in
Visibility
10 SM
Temperature
29° C
84° F
Dewpoint
23° C
73° F
Humidity
70%
1hr Rain Fall
00.00 in.
24hr Rain Fall
00.26 in.
Sky Condition
Missing
VFR

METAR KMGG 092230Z AUTO 23005KT 10SM 29/23 A2980 RMK AO2 T02940232

FAA Disclaimer: The data displayed is for advisory purposes only and is not to be used for flight planning or operations.
Missing Cloud Data